sensor_id;sensor_type;location;lat;lon;timestamp;pressure;altitude;pressure_sealevel;temperature
49593;BMP280;35499;51.482;4.264;2024-03-23T00:55:19;101054.50;;;8.74
49593;BMP280;35499;51.482;4.264;2024-03-23T00:57:44;101051.09;;;8.76
49593;BMP280;35499;51.482;4.264;2024-03-23T01:00:10;101049.38;;;8.74
49593;BMP280;35499;51.482;4.264;2024-03-23T01:02:36;101042.56;;;8.70
49593;BMP280;35499;51.482;4.264;2024-03-23T01:05:01;101043.41;;;8.67
49593;BMP280;35499;51.482;4.264;2024-03-23T01:07:26;101049.38;;;8.68
49593;BMP280;35499;51.482;4.264;2024-03-23T01:09:55;101050.25;;;8.65
49593;BMP280;35499;51.482;4.264;2024-03-23T01:12:20;101049.41;;;8.59
49593;BMP280;35499;51.482;4.264;2024-03-23T01:14:45;101044.34;;;8.52
49593;BMP280;35499;51.482;4.264;2024-03-23T01:17:11;101047.75;;;8.46
49593;BMP280;35499;51.482;4.264;2024-03-23T01:19:36;101046.94;;;8.41
49593;BMP280;35499;51.482;4.264;2024-03-23T01:22:01;101046.06;;;8.34
49593;BMP280;35499;51.482;4.264;2024-03-23T01:24:27;101046.94;;;8.25
49593;BMP280;35499;51.482;4.264;2024-03-23T01:26:52;101044.38;;;8.18
49593;BMP280;35499;51.482;4.264;2024-03-23T01:29:17;101040.16;;;8.10
49593;BMP280;35499;51.482;4.264;2024-03-23T01:31:43;101041.03;;;8.02
49593;BMP280;35499;51.482;4.264;2024-03-23T01:34:08;101044.38;;;7.95
49593;BMP280;35499;51.482;4.264;2024-03-23T01:36:33;101033.28;;;7.87
49593;BMP280;35499;51.482;4.264;2024-03-23T01:38:59;101039.28;;;7.80
49593;BMP280;35499;51.482;4.264;2024-03-23T01:41:24;101042.69;;;7.73
49593;BMP280;35499;51.482;4.264;2024-03-23T01:43:50;101051.22;;;7.67
49593;BMP280;35499;51.482;4.264;2024-03-23T01:46:15;101050.34;;;7.60
49593;BMP280;35499;51.482;4.264;2024-03-23T01:48:41;101042.66;;;7.53
49593;BMP280;35499;51.482;4.264;2024-03-23T01:51:07;101045.22;;;7.46
49593;BMP280;35499;51.482;4.264;2024-03-23T01:53:33;101032.41;;;7.38
49593;BMP280;35499;51.482;4.264;2024-03-23T01:55:58;101035.81;;;7.34
49593;BMP280;35499;51.482;4.264;2024-03-23T01:58:23;101033.25;;;7.29
49593;BMP280;35499;51.482;4.264;2024-03-23T02:00:49;101033.25;;;7.23
49593;BMP280;35499;51.482;4.264;2024-03-23T02:03:23;101034.09;;;7.17
49593;BMP280;35499;51.482;4.264;2024-03-23T02:05:53;101039.19;;;7.13
49593;BMP280;35499;51.482;4.264;2024-03-23T02:08:20;101041.75;;;7.10
49593;BMP280;35499;51.482;4.264;2024-03-23T02:10:45;101042.59;;;7.09
49593;BMP280;35499;51.482;4.264;2024-03-23T02:13:11;101036.63;;;7.06
49593;BMP280;35499;51.482;4.264;2024-03-23T02:15:36;101039.19;;;7.06
49593;BMP280;35499;51.482;4.264;2024-03-23T02:18:01;101040.88;;;7.05
49593;BMP280;35499;51.482;4.264;2024-03-23T02:20:26;101035.78;;;7.05
49593;BMP280;35499;51.482;4.264;2024-03-23T02:22:53;101037.44;;;7.03
49593;BMP280;35499;51.482;4.264;2024-03-23T02:25:18;101033.22;;;7.01
49593;BMP280;35499;51.482;4.264;2024-03-23T02:27:44;101030.63;;;6.98
49593;BMP280;35499;51.482;4.264;2024-03-23T02:30:09;101033.19;;;6.97
49593;BMP280;35499;51.482;4.264;2024-03-23T02:32:34;101033.19;;;6.95
49593;BMP280;35499;51.482;4.264;2024-03-23T02:35:00;101042.53;;;6.95
49593;BMP280;35499;51.482;4.264;2024-03-23T02:37:25;101040.84;;;6.99
49593;BMP280;35499;51.482;4.264;2024-03-23T02:39:51;101034.06;;;7.04
49593;BMP280;35499;51.482;4.264;2024-03-23T02:42:16;101039.16;;;7.09
49593;BMP280;35499;51.482;4.264;2024-03-23T02:44:43;101033.25;;;7.11
49593;BMP280;35499;51.482;4.264;2024-03-23T02:47:08;101016.19;;;7.13
49593;BMP280;35499;51.482;4.264;2024-03-23T02:49:33;101018.75;;;7.13
49593;BMP280;35499;51.482;4.264;2024-03-23T02:51:59;101017.06;;;7.15
49593;BMP280;35499;51.482;4.264;2024-03-23T02:54:24;101016.19;;;7.13
49593;BMP280;35499;51.482;4.264;2024-03-23T02:56:49;101007.69;;;7.10
49593;BMP280;35499;51.482;4.264;2024-03-23T02:59:14;101012.78;;;7.05
49593;BMP280;35499;51.482;4.264;2024-03-23T03:01:40;101013.63;;;7.01
49593;BMP280;35499;51.482;4.264;2024-03-23T03:04:05;101021.28;;;7.00
49593;BMP280;35499;51.482;4.264;2024-03-23T03:06:31;101022.09;;;6.97
49593;BMP280;35499;51.482;4.264;2024-03-23T03:08:56;101019.56;;;6.96
49593;BMP280;35499;51.482;4.264;2024-03-23T03:11:21;101011.91;;;6.95
49593;BMP280;35499;51.482;4.264;2024-03-23T03:13:47;101011.91;;;6.92
49593;BMP280;35499;51.482;4.264;2024-03-23T03:16:12;101011.03;;;6.90
49593;BMP280;35499;51.482;4.264;2024-03-23T03:18:38;101013.59;;;6.87
49593;BMP280;35499;51.482;4.264;2024-03-23T03:21:05;101009.31;;;6.84
49593;BMP280;35499;51.482;4.264;2024-03-23T03:23:33;101016.09;;;6.82
49593;BMP280;35499;51.482;4.264;2024-03-23T03:25:59;101017.81;;;6.80
49593;BMP280;35499;51.482;4.264;2024-03-23T03:28:24;101012.69;;;6.79
49593;BMP280;35499;51.482;4.264;2024-03-23T03:30:51;101011.84;;;6.80
49593;BMP280;35499;51.482;4.264;2024-03-23T03:33:16;101013.53;;;6.78
49593;BMP280;35499;51.482;4.264;2024-03-23T03:35:42;101014.41;;;6.80
49593;BMP280;35499;51.482;4.264;2024-03-23T03:38:08;101016.09;;;6.82
49593;BMP280;35499;51.482;4.264;2024-03-23T03:40:33;101008.47;;;6.84
49593;BMP280;35499;51.482;4.264;2024-03-23T03:42:59;101007.63;;;6.86
49593;BMP280;35499;51.482;4.264;2024-03-23T03:45:24;100999.13;;;6.87
49593;BMP280;35499;51.482;4.264;2024-03-23T03:47:49;101005.94;;;6.91
49593;BMP280;35499;51.482;4.264;2024-03-23T03:50:15;101018.69;;;6.93
49593;BMP280;35499;51.482;4.264;2024-03-23T03:52:40;101005.09;;;6.95
49593;BMP280;35499;51.482;4.264;2024-03-23T03:55:12;101010.22;;;7.02
49593;BMP280;35499;51.482;4.264;2024-03-23T03:57:38;101005.16;;;7.11
49593;BMP280;35499;51.482;4.264;2024-03-23T04:00:03;101001.75;;;7.21
49593;BMP280;35499;51.482;4.264;2024-03-23T04:02:29;101003.47;;;7.29
49593;BMP280;35499;51.482;4.264;2024-03-23T04:04:54;101006.88;;;7.35
49593;BMP280;35499;51.482;4.264;2024-03-23T04:07:20;101004.34;;;7.41
49593;BMP280;35499;51.482;4.264;2024-03-23T04:09:47;101013.69;;;7.42
49593;BMP280;35499;51.482;4.264;2024-03-23T04:12:13;101002.63;;;7.45
49593;BMP280;35499;51.482;4.264;2024-03-23T04:14:38;101003.50;;;7.50
49593;BMP280;35499;51.482;4.264;2024-03-23T04:17:03;101003.47;;;7.48
49593;BMP280;35499;51.482;4.264;2024-03-23T04:19:28;101000.94;;;7.50
49593;BMP280;35499;51.482;4.264;2024-03-23T04:21:54;101000.94;;;7.50
49593;BMP280;35499;51.482;4.264;2024-03-23T04:24:19;101002.63;;;7.49
49593;BMP280;35499;51.482;4.264;2024-03-23T04:26:46;101008.59;;;7.50
49593;BMP280;35499;51.482;4.264;2024-03-23T04:29:11;101008.59;;;7.51
49593;BMP280;35499;51.482;4.264;2024-03-23T04:31:37;100995.84;;;7.51
49593;BMP280;35499;51.482;4.264;2024-03-23T04:34:04;100995.00;;;7.52
49593;BMP280;35499;51.482;4.264;2024-03-23T04:36:29;100982.22;;;7.52
49593;BMP280;35499;51.482;4.264;2024-03-23T04:38:56;100995.81;;;7.52
49593;BMP280;35499;51.482;4.264;2024-03-23T04:41:22;101006.88;;;7.53
49593;BMP280;35499;51.482;4.264;2024-03-23T04:43:47;101001.78;;;7.53
49593;BMP280;35499;51.482;4.264;2024-03-23T04:46:12;101000.09;;;7.52
49593;BMP280;35499;51.482;4.264;2024-03-23T04:48:38;100998.38;;;7.51
49593;BMP280;35499;51.482;4.264;2024-03-23T04:51:03;100995.81;;;7.48
49593;BMP280;35499;51.482;4.264;2024-03-23T04:53:29;101001.81;;;7.47
49593;BMP280;35499;51.482;4.264;2024-03-23T04:55:58;100999.22;;;7.49
49593;BMP280;35499;51.482;4.264;2024-03-23T04:58:25;101002.63;;;7.53
49593;BMP280;35499;51.482;4.264;2024-03-23T05:00:57;100991.56;;;7.60
49593;BMP280;35499;51.482;4.264;2024-03-23T05:03:22;101004.34;;;7.68
49593;BMP280;35499;51.482;4.264;2024-03-23T05:05:48;100999.22;;;7.73
49593;BMP280;35499;51.482;4.264;2024-03-23T05:08:14;100991.56;;;7.79
49593;BMP280;35499;51.482;4.264;2024-03-23T05:10:41;100994.97;;;7.81
49593;BMP280;35499;51.482;4.264;2024-03-23T05:13:07;100991.56;;;7.84
49593;BMP280;35499;51.482;4.264;2024-03-23T05:15:32;101003.50;;;7.86
49593;BMP280;35499;51.482;4.264;2024-03-23T05:17:58;101000.06;;;7.87
49593;BMP280;35499;51.482;4.264;2024-03-23T05:20:23;100992.41;;;7.88
49593;BMP280;35499;51.482;4.264;2024-03-23T05:22:49;100995.81;;;7.89
49593;BMP280;35499;51.482;4.264;2024-03-23T05:25:15;100993.25;;;7.89
49593;BMP280;35499;51.482;4.264;2024-03-23T05:27:41;100993.28;;;7.86
49593;BMP280;35499;51.482;4.264;2024-03-23T05:30:07;100995.81;;;7.80
49593;BMP280;35499;51.482;4.264;2024-03-23T05:32:32;100995.84;;;7.76
49593;BMP280;35499;51.482;4.264;2024-03-23T05:34:57;100998.38;;;7.73
49593;BMP280;35499;51.482;4.264;2024-03-23T05:37:23;100999.22;;;7.75
49593;BMP280;35499;51.482;4.264;2024-03-23T05:39:49;100993.25;;;7.79
49593;BMP280;35499;51.482;4.264;2024-03-23T05:42:18;101003.47;;;7.83
49593;BMP280;35499;51.482;4.264;2024-03-23T05:44:44;100991.56;;;7.85
49593;BMP280;35499;51.482;4.264;2024-03-23T05:47:11;100996.66;;;7.84
49593;BMP280;35499;51.482;4.264;2024-03-23T05:49:38;100998.38;;;7.83
49593;BMP280;35499;51.482;4.264;2024-03-23T05:52:03;100994.13;;;7.79
49593;BMP280;35499;51.482;4.264;2024-03-23T05:54:29;100994.97;;;7.75
49593;BMP280;35499;51.482;4.264;2024-03-23T05:56:55;100984.75;;;7.72
49593;BMP280;35499;51.482;4.264;2024-03-23T05:59:20;100984.75;;;7.68
49593;BMP280;35499;51.482;4.264;2024-03-23T06:01:47;100994.13;;;7.66
49593;BMP280;35499;51.482;4.264;2024-03-23T06:04:12;100990.69;;;7.63
49593;BMP280;35499;51.482;4.264;2024-03-23T06:06:39;100991.56;;;7.59
49593;BMP280;35499;51.482;4.264;2024-03-23T06:09:04;101007.75;;;7.59
49593;BMP280;35499;51.482;4.264;2024-03-23T06:11:29;101001.78;;;7.59
49593;BMP280;35499;51.482;4.264;2024-03-23T06:13:56;101011.16;;;7.60
49593;BMP280;35499;51.482;4.264;2024-03-23T06:16:21;101002.63;;;7.64
49593;BMP280;35499;51.482;4.264;2024-03-23T06:18:51;101011.19;;;7.71
49593;BMP280;35499;51.482;4.264;2024-03-23T06:21:16;101007.75;;;7.78
49593;BMP280;35499;51.482;4.264;2024-03-23T06:23:42;101015.41;;;7.84
49593;BMP280;35499;51.482;4.264;2024-03-23T06:26:07;101007.75;;;7.86
49593;BMP280;35499;51.482;4.264;2024-03-23T06:28:33;101014.56;;;7.86
49593;BMP280;35499;51.482;4.264;2024-03-23T06:30:58;101010.31;;;7.90
49593;BMP280;35499;51.482;4.264;2024-03-23T06:33:24;101014.56;;;7.94
49593;BMP280;35499;51.482;4.264;2024-03-23T06:35:50;101009.47;;;8.01
49593;BMP280;35499;51.482;4.264;2024-03-23T06:38:17;101017.13;;;8.16
49593;BMP280;35499;51.482;4.264;2024-03-23T06:40:42;101017.00;;;8.61
49593;BMP280;35499;51.482;4.264;2024-03-23T06:43:07;101015.00;;;9.21
49593;BMP280;35499;51.482;4.264;2024-03-23T06:45:33;101007.72;;;9.82
49593;BMP280;35499;51.482;4.264;2024-03-23T06:47:59;101011.50;;;10.32
49593;BMP280;35499;51.482;4.264;2024-03-23T06:50:24;101008.38;;;10.79
49593;BMP280;35499;51.482;4.264;2024-03-23T06:52:50;101010.56;;;11.07
49593;BMP280;35499;51.482;4.264;2024-03-23T06:55:15;101020.59;;;11.28
49593;BMP280;35499;51.482;4.264;2024-03-23T06:57:40;101008.03;;;11.64
49593;BMP280;35499;51.482;4.264;2024-03-23T07:00:06;101016.03;;;11.97
49593;BMP280;35499;51.482;4.264;2024-03-23T07:02:35;101016.44;;;12.22
49593;BMP280;35499;51.482;4.264;2024-03-23T07:05:00;101018.84;;;12.31
49593;BMP280;35499;51.482;4.264;2024-03-23T07:07:25;101014.00;;;12.62
49593;BMP280;35499;51.482;4.264;2024-03-23T07:09:52;101014.00;;;13.02
49593;BMP280;35499;51.482;4.264;2024-03-23T07:12:17;101009.88;;;13.32
49593;BMP280;35499;51.482;4.264;2024-03-23T07:14:43;101014.59;;;13.51
49593;BMP280;35499;51.482;4.264;2024-03-23T07:17:08;101015.59;;;13.82
49593;BMP280;35499;51.482;4.264;2024-03-23T07:19:33;101006.56;;;13.98
49593;BMP280;35499;51.482;4.264;2024-03-23T07:21:59;101010.00;;;13.98
49593;BMP280;35499;51.482;4.264;2024-03-23T07:24:24;101012.47;;;14.03
49593;BMP280;35499;51.482;4.264;2024-03-23T07:26:49;101012.59;;;14.30
49593;BMP280;35499;51.482;4.264;2024-03-23T07:29:16;101015.00;;;14.68
49593;BMP280;35499;51.482;4.264;2024-03-23T07:31:41;101008.94;;;14.69
49593;BMP280;35499;51.482;4.264;2024-03-23T07:34:07;101020.47;;;13.94
49593;BMP280;35499;51.482;4.264;2024-03-23T07:36:32;101020.13;;;12.98
49593;BMP280;35499;51.482;4.264;2024-03-23T07:38:57;101020.03;;;12.15
49593;BMP280;35499;51.482;4.264;2024-03-23T07:41:23;101024.66;;;11.41
49593;BMP280;35499;51.482;4.264;2024-03-23T07:43:48;101018.47;;;10.92
49593;BMP280;35499;51.482;4.264;2024-03-23T07:46:15;101021.00;;;10.96
49593;BMP280;35499;51.482;4.264;2024-03-23T07:48:41;101008.81;;;11.70
49593;BMP280;35499;51.482;4.264;2024-03-23T07:51:15;101021.13;;;12.47
49593;BMP280;35499;51.482;4.264;2024-03-23T07:53:43;101007.56;;;13.20
49593;BMP280;35499;51.482;4.264;2024-03-23T07:56:10;101012.31;;;13.75
49593;BMP280;35499;51.482;4.264;2024-03-23T07:58:36;101010.41;;;14.15
49593;BMP280;35499;51.482;4.264;2024-03-23T08:01:11;101008.47;;;14.24
49593;BMP280;35499;51.482;4.264;2024-03-23T08:03:39;101006.41;;;14.66
49593;BMP280;35499;51.482;4.264;2024-03-23T08:06:16;101008.50;;;15.13
49593;BMP280;35499;51.482;4.264;2024-03-23T08:08:46;101003.41;;;15.39
49593;BMP280;35499;51.482;4.264;2024-03-23T08:11:12;101003.56;;;15.59
49593;BMP280;35499;51.482;4.264;2024-03-23T08:13:39;101004.28;;;15.90
49593;BMP280;35499;51.482;4.264;2024-03-23T08:16:05;101007.31;;;16.03
49593;BMP280;35499;51.482;4.264;2024-03-23T08:18:31;101002.19;;;16.26
49593;BMP280;35499;51.482;4.264;2024-03-23T08:21:01;100997.84;;;16.50
49593;BMP280;35499;51.482;4.264;2024-03-23T08:23:28;100994.19;;;16.33
49593;BMP280;35499;51.482;4.264;2024-03-23T08:26:04;100999.44;;;15.79
49593;BMP280;35499;51.482;4.264;2024-03-23T08:28:30;101004.38;;;15.61
49593;BMP280;35499;51.482;4.264;2024-03-23T08:30:56;101006.44;;;15.51
49593;BMP280;35499;51.482;4.264;2024-03-23T08:33:22;100998.78;;;15.48
49593;BMP280;35499;51.482;4.264;2024-03-23T08:36:02;101004.06;;;15.17
49593;BMP280;35499;51.482;4.264;2024-03-23T08:38:27;101003.72;;;15.28
49593;BMP280;35499;51.482;4.264;2024-03-23T08:41:07;101003.19;;;15.18
49593;BMP280;35499;51.482;4.264;2024-03-23T08:43:34;101019.84;;;14.49
49593;BMP280;35499;51.482;4.264;2024-03-23T08:46:04;101020.22;;;14.03
49593;BMP280;35499;51.482;4.264;2024-03-23T08:48:30;101030.13;;;13.49
49593;BMP280;35499;51.482;4.264;2024-03-23T08:51:00;101027.06;;;12.94
49593;BMP280;35499;51.482;4.264;2024-03-23T08:53:28;101031.22;;;12.58
49593;BMP280;35499;51.482;4.264;2024-03-23T08:55:54;101033.66;;;12.20
49593;BMP280;35499;51.482;4.264;2024-03-23T08:58:20;101028.38;;;11.80
49593;BMP280;35499;51.482;4.264;2024-03-23T09:00:45;101030.09;;;11.80
49593;BMP280;35499;51.482;4.264;2024-03-23T09:03:12;101028.03;;;11.99
49593;BMP280;35499;51.482;4.264;2024-03-23T09:05:40;101018.94;;;11.79
49593;BMP280;35499;51.482;4.264;2024-03-23T09:08:06;101021.91;;;11.54
49593;BMP280;35499;51.482;4.264;2024-03-23T09:10:31;101036.00;;;11.28
49593;BMP280;35499;51.482;4.264;2024-03-23T09:12:57;101028.63;;;11.04
49593;BMP280;35499;51.482;4.264;2024-03-23T09:15:22;101021.22;;;10.79
49593;BMP280;35499;51.482;4.264;2024-03-23T09:17:47;101028.75;;;10.93
49593;BMP280;35499;51.482;4.264;2024-03-23T09:20:13;101022.66;;;11.61
49593;BMP280;35499;51.482;4.264;2024-03-23T09:22:38;101021.84;;;11.57
49593;BMP280;35499;51.482;4.264;2024-03-23T09:25:04;101025.66;;;11.31
49593;BMP280;35499;51.482;4.264;2024-03-23T09:27:30;101037.09;;;11.10
49593;BMP280;35499;51.482;4.264;2024-03-23T09:29:55;101019.03;;;11.72
49593;BMP280;35499;51.482;4.264;2024-03-23T09:32:21;101030.22;;;12.67
49593;BMP280;35499;51.482;4.264;2024-03-23T09:34:46;101010.06;;;13.60
49593;BMP280;35499;51.482;4.264;2024-03-23T09:37:11;101006.34;;;14.39
49593;BMP280;35499;51.482;4.264;2024-03-23T09:39:36;101001.78;;;15.08
49593;BMP280;35499;51.482;4.264;2024-03-23T09:42:02;100996.19;;;15.48
49593;BMP280;35499;51.482;4.264;2024-03-23T09:44:30;101000.22;;;15.29
49593;BMP280;35499;51.482;4.264;2024-03-23T09:46:55;101007.41;;;14.62
49593;BMP280;35499;51.482;4.264;2024-03-23T09:49:21;101014.13;;;14.05
49593;BMP280;35499;51.482;4.264;2024-03-23T09:51:46;101017.63;;;13.32
49593;BMP280;35499;51.482;4.264;2024-03-23T09:54:11;101031.81;;;12.73
49593;BMP280;35499;51.482;4.264;2024-03-23T09:56:37;101025.94;;;12.20
49593;BMP280;35499;51.482;4.264;2024-03-23T09:59:03;101036.84;;;11.85
49593;BMP280;35499;51.482;4.264;2024-03-23T10:04:41;101061.91;;;10.39
49593;BMP280;35499;51.482;4.264;2024-03-23T10:07:13;101051.47;;;9.60
49593;BMP280;35499;51.482;4.264;2024-03-23T10:09:39;101050.84;;;9.26
49593;BMP280;35499;51.482;4.264;2024-03-23T10:12:12;101037.69;;;9.75
49593;BMP280;35499;51.482;4.264;2024-03-23T10:14:39;101026.03;;;11.05
49593;BMP280;35499;51.482;4.264;2024-03-23T10:17:14;101017.47;;;12.58
49593;BMP280;35499;51.482;4.264;2024-03-23T10:19:47;101012.13;;;13.46
49593;BMP280;35499;51.482;4.264;2024-03-23T10:22:17;101020.75;;;13.45
49593;BMP280;35499;51.482;4.264;2024-03-23T10:24:43;101029.34;;;12.66
49593;BMP280;35499;51.482;4.264;2024-03-23T10:27:08;101026.44;;;11.91
49593;BMP280;35499;51.482;4.264;2024-03-23T10:29:33;101035.16;;;11.29
49593;BMP280;35499;51.482;4.264;2024-03-23T10:32:11;101022.28;;;10.63
49593;BMP280;35499;51.482;4.264;2024-03-23T10:34:37;101040.72;;;10.19
49593;BMP280;35499;51.482;4.264;2024-03-23T10:37:03;101033.31;;;9.87
49593;BMP280;35499;51.482;4.264;2024-03-23T10:39:37;101036.94;;;9.60
49593;BMP280;35499;51.482;4.264;2024-03-23T10:42:04;101032.78;;;9.42
49593;BMP280;35499;51.482;4.264;2024-03-23T10:44:30;101023.44;;;9.35
49593;BMP280;35499;51.482;4.264;2024-03-23T10:46:59;101026.84;;;9.35
49593;BMP280;35499;51.482;4.264;2024-03-23T10:49:28;101028.53;;;9.38
49593;BMP280;35499;51.482;4.264;2024-03-23T10:51:55;101012.34;;;9.33
49593;BMP280;35499;51.482;4.264;2024-03-23T10:54:21;101021.81;;;9.25
49593;BMP280;35499;51.482;4.264;2024-03-23T10:56:47;101003.81;;;9.31
49593;BMP280;35499;51.482;4.264;2024-03-23T10:59:14;101016.59;;;9.34
49593;BMP280;35499;51.482;4.264;2024-03-23T11:01:59;101013.00;;;9.61
49593;BMP280;35499;51.482;4.264;2024-03-23T11:04:36;101003.84;;;10.26
49593;BMP280;35499;51.482;4.264;2024-03-23T11:09:55;101015.25;;;10.77
49593;BMP280;35499;51.482;4.264;2024-03-23T11:14:50;101017.81;;;9.99
49593;BMP280;35499;51.482;4.264;2024-03-23T11:17:23;101018.91;;;9.70
49593;BMP280;35499;51.482;4.264;2024-03-23T11:20:02;101025.91;;;9.49
49593;BMP280;35499;51.482;4.264;2024-03-23T11:25:02;101018.34;;;9.29
49593;BMP280;35499;51.482;4.264;2024-03-23T11:27:28;101014.13;;;9.19
49593;BMP280;35499;51.482;4.264;2024-03-23T11:29:53;101019.34;;;9.06
49593;BMP280;35499;51.482;4.264;2024-03-23T11:32:18;101012.56;;;8.95
49593;BMP280;35499;51.482;4.264;2024-03-23T11:34:44;101016.03;;;8.85
49593;BMP280;35499;51.482;4.264;2024-03-23T11:37:09;101022.03;;;8.81
49593;BMP280;35499;51.482;4.264;2024-03-23T11:39:34;101013.50;;;8.79
49593;BMP280;35499;51.482;4.264;2024-03-23T11:41:59;100998.13;;;8.85
49593;BMP280;35499;51.482;4.264;2024-03-23T11:44:26;100995.50;;;8.94
49593;BMP280;35499;51.482;4.264;2024-03-23T11:46:52;100992.00;;;9.10
49593;BMP280;35499;51.482;4.264;2024-03-23T11:49:24;100990.16;;;9.29
49593;BMP280;35499;51.482;4.264;2024-03-23T11:51:51;100976.34;;;9.50
49593;BMP280;35499;51.482;4.264;2024-03-23T11:54:20;100977.84;;;9.72
49593;BMP280;35499;51.482;4.264;2024-03-23T11:59:34;100966.47;;;10.03
49593;BMP280;35499;51.482;4.264;2024-03-23T12:02:00;100958.00;;;10.71
49593;BMP280;35499;51.482;4.264;2024-03-23T12:04:28;100946.94;;;11.76
49593;BMP280;35499;51.482;4.264;2024-03-23T12:07:14;100943.47;;;12.24
49593;BMP280;35499;51.482;4.264;2024-03-23T12:09:40;100932.34;;;12.21
49593;BMP280;35499;51.482;4.264;2024-03-23T12:12:16;100933.66;;;11.98
49593;BMP280;35499;51.482;4.264;2024-03-23T12:14:46;100931.56;;;12.19
49593;BMP280;35499;51.482;4.264;2024-03-23T12:17:25;100920.38;;;12.20
49593;BMP280;35499;51.482;4.264;2024-03-23T12:19:51;100927.22;;;12.21
49593;BMP280;35499;51.482;4.264;2024-03-23T12:22:20;100920.88;;;12.38
49593;BMP280;35499;51.482;4.264;2024-03-23T12:24:45;100921.94;;;12.70
49593;BMP280;35499;51.482;4.264;2024-03-23T12:27:11;100905.94;;;12.93
49593;BMP280;35499;51.482;4.264;2024-03-23T12:29:36;100926.06;;;12.76
49593;BMP280;35499;51.482;4.264;2024-03-23T12:32:04;100921.25;;;12.62
49593;BMP280;35499;51.482;4.264;2024-03-23T12:34:29;100927.59;;;12.45
49593;BMP280;35499;51.482;4.264;2024-03-23T12:36:57;100916.22;;;12.94
49593;BMP280;35499;51.482;4.264;2024-03-23T12:39:23;100919.38;;;13.06
49593;BMP280;35499;51.482;4.264;2024-03-23T12:41:51;100916.94;;;12.62
49593;BMP280;35499;51.482;4.264;2024-03-23T12:44:18;100935.13;;;12.12
49593;BMP280;35499;51.482;4.264;2024-03-23T12:46:43;100925.34;;;11.84
49593;BMP280;35499;51.482;4.264;2024-03-23T12:49:09;100921.38;;;12.12
49593;BMP280;35499;51.482;4.264;2024-03-23T12:51:35;100911.00;;;12.57
49593;BMP280;35499;51.482;4.264;2024-03-23T12:54:00;100911.00;;;12.96
49593;BMP280;35499;51.482;4.264;2024-03-23T12:56:26;100912.75;;;13.31
49593;BMP280;35499;51.482;4.264;2024-03-23T12:58:53;100902.25;;;13.71
49593;BMP280;35499;51.482;4.264;2024-03-23T13:01:20;100903.75;;;14.12
49593;BMP280;35499;51.482;4.264;2024-03-23T13:03:46;100900.69;;;14.29
49593;BMP280;35499;51.482;4.264;2024-03-23T13:06:12;100899.47;;;14.40
49593;BMP280;35499;51.482;4.264;2024-03-23T13:08:37;100905.31;;;14.48
49593;BMP280;35499;51.482;4.264;2024-03-23T13:11:02;100902.72;;;14.48
49593;BMP280;35499;51.482;4.264;2024-03-23T13:13:28;100893.09;;;14.53
49593;BMP280;35499;51.482;4.264;2024-03-23T13:15:53;100900.41;;;14.39
49593;BMP280;35499;51.482;4.264;2024-03-23T13:18:18;100888.78;;;14.53
49593;BMP280;35499;51.482;4.264;2024-03-23T13:20:44;100893.66;;;14.62
49593;BMP280;35499;51.482;4.264;2024-03-23T13:23:09;100903.16;;;14.62
49593;BMP280;35499;51.482;4.264;2024-03-23T13:25:34;100896.97;;;14.67
49593;BMP280;35499;51.482;4.264;2024-03-23T13:28:01;100888.31;;;14.68
49593;BMP280;35499;51.482;4.264;2024-03-23T13:30:26;100885.78;;;14.67
49593;BMP280;35499;51.482;4.264;2024-03-23T13:32:51;100886.72;;;14.64
49593;BMP280;35499;51.482;4.264;2024-03-23T13:35:16;100881.34;;;14.70
49593;BMP280;35499;51.482;4.264;2024-03-23T13:37:42;100881.66;;;14.60
49593;BMP280;35499;51.482;4.264;2024-03-23T13:40:08;100865.75;;;14.45
49593;BMP280;35499;51.482;4.264;2024-03-23T13:42:34;100866.25;;;14.57
49593;BMP280;35499;51.482;4.264;2024-03-23T13:44:59;100869.88;;;14.51
49593;BMP280;35499;51.482;4.264;2024-03-23T13:47:24;100860.78;;;14.39
49593;BMP280;35499;51.482;4.264;2024-03-23T13:49:50;100854.63;;;14.43
49593;BMP280;35499;51.482;4.264;2024-03-23T13:52:15;100863.25;;;14.43
49593;BMP280;35499;51.482;4.264;2024-03-23T13:54:41;100851.41;;;14.35
49593;BMP280;35499;51.482;4.264;2024-03-23T13:57:11;100849.91;;;14.28
49593;BMP280;35499;51.482;4.264;2024-03-23T13:59:36;100855.25;;;14.22
49593;BMP280;35499;51.482;4.264;2024-03-23T14:02:01;100857.00;;;14.20
49593;BMP280;35499;51.482;4.264;2024-03-23T14:04:27;100861.22;;;14.24
49593;BMP280;35499;51.482;4.264;2024-03-23T14:06:52;100869.22;;;14.15
49593;BMP280;35499;51.482;4.264;2024-03-23T14:09:17;100871.75;;;13.87
49593;BMP280;35499;51.482;4.264;2024-03-23T14:11:48;100866.00;;;13.75
49593;BMP280;35499;51.482;4.264;2024-03-23T14:14:14;100865.47;;;13.64
49593;BMP280;35499;51.482;4.264;2024-03-23T14:16:42;100867.50;;;13.52
49593;BMP280;35499;51.482;4.264;2024-03-23T14:19:07;100875.56;;;13.05
49593;BMP280;35499;51.482;4.264;2024-03-23T14:21:33;100865.56;;;12.55
49593;BMP280;35499;51.482;4.264;2024-03-23T14:24:00;100867.22;;;12.16
49593;BMP280;35499;51.482;4.264;2024-03-23T14:26:26;100854.50;;;12.10
49593;BMP280;35499;51.482;4.264;2024-03-23T14:28:51;100854.28;;;12.20
49593;BMP280;35499;51.482;4.264;2024-03-23T14:31:16;100844.16;;;12.52
49593;BMP280;35499;51.482;4.264;2024-03-23T14:33:42;100842.72;;;12.77
49593;BMP280;35499;51.482;4.264;2024-03-23T14:36:14;100827.66;;;12.97
49593;BMP280;35499;51.482;4.264;2024-03-23T14:38:39;100825.59;;;13.10
49593;BMP280;35499;51.482;4.264;2024-03-23T14:41:05;100819.44;;;13.16
49593;BMP280;35499;51.482;4.264;2024-03-23T14:43:30;100809.47;;;13.03
49593;BMP280;35499;51.482;4.264;2024-03-23T14:46:15;100806.19;;;12.61
49593;BMP280;35499;51.482;4.264;2024-03-23T14:48:42;100797.25;;;12.38
49593;BMP280;35499;51.482;4.264;2024-03-23T14:51:08;100811.56;;;12.11
49593;BMP280;35499;51.482;4.264;2024-03-23T14:53:35;100808.22;;;12.07
49593;BMP280;35499;51.482;4.264;2024-03-23T14:56:01;100810.88;;;12.04
49593;BMP280;35499;51.482;4.264;2024-03-23T14:58:27;100803.31;;;11.96
49593;BMP280;35499;51.482;4.264;2024-03-23T15:00:52;100806.88;;;11.90
49593;BMP280;35499;51.482;4.264;2024-03-23T15:03:18;100821.31;;;11.96
49593;BMP280;35499;51.482;4.264;2024-03-23T15:05:57;100819.34;;;12.09